Terminal Aerodrome Forecast
Issued by NWS

Home | Current Version | Previous Version | Text Only | Print | Product List | Glossary On
Versions: 1 2 3 4 5 6 7 8 9 10 11 12 13 14 15 16 17 18 19 20 21 22 23 24 25 26 27 28 29 30 31 32 33 34
000
FTUS42 KTBW 291720
TAFPIE
TAF
KPIE 291720Z 2918/3018 14008KT P6SM VCTS BKN035CB
     FM291900 24007KT P6SM VCTS BKN040CB
     FM292100 28007KT P6SM SCT040 BKN130
     FM300100 VRB04KT P6SM FEW040 SCT130 BKN250
     FM301500 33006KT P6SM FEW040 SCT250=

USA.gov is the U.S. government's official web portal to all federal, state and local government web resources and services.